Doaktown, Canada
Current Conditions -  °F | °C
As of 5:00 AM on Monday 24 Nov 2014 (Local Time) from CYFC Reporting Station
Broken Clouds Broken Clouds  
Wind Chill: 30°   Ceiling: 4700
Heat Index: 34°   Visibility: 9mi
Dew Point: 32°   Wind: 5mph
Humidity: 93%   Direction: 60°ENE
Pressure: 30.13"   Gusts: NA
Location:  46.55°N, 66.12°W
Report Text: CYFC 240900Z AUTO 06004KT 9SM BKN047 01/M00 A3013 RMK SLP204
Loading
Personal Weather Stations






























Interactive Weather Map New forecast layout! Learn more

10-Day Weather Forecast

Advertisements
Track Severe Weather on mobile